Time;durP1;ratioP1;P1;durP2;ratioP2;P2;SDS_P1;SDS_P2;PMS_P1;PMS_P2;Temp;Humidity;BMP_temperature;BMP_pressure;BME280_temperature;BME280_humidity;BME280_pressure;Samples;Min_cycle;Max_cycle;Signal;HPM_P1;HPM_P2
2020/12/12 00:00:55;;;;;;;11.35;8.05;;;6.70;99.90;;;;;;5008138;28;20042;-75
2020/12/12 00:03:21;;;;;;;13.40;8.82;;;6.70;99.90;;;;;;5016870;28;20092;-75
2020/12/12 00:05:46;;;;;;;11.50;7.63;;;6.70;99.90;;;;;;5021827;28;20044;-76
2020/12/12 00:08:12;;;;;;;11.50;7.80;;;6.70;99.90;;;;;;5019756;28;20033;-75
2020/12/12 00:10:38;;;;;;;11.55;7.70;;;6.70;99.90;;;;;;5014666;28;20063;-75
2020/12/12 00:13:07;;;;;;;13.38;8.68;;;6.70;99.90;;;;;;5009717;28;20040;-75
2020/12/12 00:15:33;;;;;;;10.00;7.45;;;6.70;99.90;;;;;;5017703;28;20116;-76
2020/12/12 00:17:59;;;;;;;11.77;7.82;;;6.70;99.90;;;;;;5012422;28;20598;-75
2020/12/12 00:20:25;;;;;;;12.98;7.55;;;6.80;99.90;;;;;;5015057;28;20111;-75
2020/12/12 00:22:50;;;;;;;11.25;7.40;;;6.80;99.90;;;;;;5008044;28;20068;-74
2020/12/12 00:25:16;;;;;;;11.52;7.90;;;6.80;99.90;;;;;;5010432;28;20241;-74
2020/12/12 00:27:41;;;;;;;14.75;8.40;;;6.70;99.90;;;;;;5007119;28;20049;-75
2020/12/12 00:30:07;;;;;;;11.15;8.00;;;6.80;99.90;;;;;;5011122;28;20033;-74
2020/12/12 00:32:33;;;;;;;14.32;8.45;;;6.80;99.90;;;;;;5013995;28;20443;-75
2020/12/12 00:34:59;;;;;;;13.85;8.82;;;6.80;99.90;;;;;;5012800;28;20405;-75
2020/12/12 00:37:25;;;;;;;11.55;8.02;;;6.80;99.90;;;;;;5017190;28;20046;-76
2020/12/12 00:39:51;;;;;;;12.18;8.75;;;6.70;99.90;;;;;;5018747;28;20526;-74
2020/12/12 00:42:17;;;;;;;11.82;8.57;;;6.70;99.90;;;;;;5018710;28;20064;-75
2020/12/12 00:44:42;;;;;;;12.32;9.15;;;6.70;99.90;;;;;;5019448;28;20491;-76
2020/12/12 00:47:08;;;;;;;13.07;9.73;;;6.70;99.90;;;;;;5020190;28;20038;-76
2020/12/12 00:49:34;;;;;;;13.65;9.23;;;6.70;99.90;;;;;;5022924;28;20033;-74
2020/12/12 00:51:59;;;;;;;12.25;8.63;;;6.70;99.90;;;;;;5014820;28;20037;-75
2020/12/12 00:54:25;;;;;;;14.32;8.77;;;6.70;99.90;;;;;;5017328;28;20107;-75
2020/12/12 00:56:51;;;;;;;13.82;9.20;;;6.70;99.90;;;;;;5026583;28;20051;-74
2020/12/12 00:59:18;;;;;;;11.98;8.65;;;6.80;99.90;;;;;;5017865;28;20045;-74
2020/12/12 01:01:47;;;;;;;15.18;9.43;;;6.70;99.90;;;;;;5019444;28;20053;-74
2020/12/12 01:04:16;;;;;;;11.75;8.38;;;6.80;99.90;;;;;;5016476;28;20438;-74
2020/12/12 01:06:46;;;;;;;13.35;9.38;;;6.80;99.90;;;;;;5015626;28;20487;-75
2020/12/12 01:09:11;;;;;;;12.93;8.93;;;6.80;99.90;;;;;;5014147;28;20427;-75
2020/12/12 01:11:37;;;;;;;13.45;9.05;;;6.80;99.90;;;;;;5014134;28;20136;-74
2020/12/12 01:14:03;;;;;;;12.32;8.90;;;6.80;99.90;;;;;;5010487;28;20095;-75
2020/12/12 01:16:29;;;;;;;14.93;10.00;;;6.80;99.90;;;;;;5016311;28;20069;-76
2020/12/12 01:18:54;;;;;;;13.27;9.77;;;6.80;99.90;;;;;;5020942;28;20049;-74
2020/12/12 01:21:20;;;;;;;12.25;8.82;;;6.80;99.90;;;;;;5021825;28;20484;-75
2020/12/12 01:23:46;;;;;;;13.10;9.30;;;6.80;99.90;;;;;;5017184;28;20095;-74
2020/12/12 01:26:12;;;;;;;13.77;9.57;;;6.80;99.90;;;;;;5018490;28;20077;-73
2020/12/12 01:28:38;;;;;;;13.45;9.60;;;6.80;99.90;;;;;;5010079;28;20034;-74
2020/12/12 01:31:04;;;;;;;12.88;9.63;;;6.80;99.90;;;;;;5023117;28;20036;-74
2020/12/12 01:33:30;;;;;;;14.63;9.95;;;6.80;99.90;;;;;;5029296;28;20372;-75
2020/12/12 01:35:56;;;;;;;15.07;10.15;;;6.80;99.90;;;;;;5010696;28;20409;-74
2020/12/12 01:38:22;;;;;;;12.40;8.77;;;6.80;99.90;;;;;;5013214;28;20041;-74
2020/12/12 01:40:47;;;;;;;14.27;8.73;;;6.80;99.90;;;;;;5015939;28;20037;-75
2020/12/12 01:43:13;;;;;;;12.60;8.68;;;6.80;99.90;;;;;;5014823;28;20028;-74
2020/12/12 01:45:39;;;;;;;12.77;8.35;;;6.80;99.90;;;;;;5016721;28;20388;-76
2020/12/12 01:48:08;;;;;;;12.05;8.20;;;6.90;99.90;;;;;;5014498;28;20398;-76
2020/12/12 01:50:35;;;;;;;11.35;8.05;;;6.90;99.90;;;;;;5011247;28;20037;-76
2020/12/12 01:53:02;;;;;;;11.95;8.88;;;6.90;99.90;;;;;;5016139;28;20169;-75
2020/12/12 01:55:29;;;;;;;13.35;8.13;;;6.90;99.90;;;;;;5009821;28;20048;-75
2020/12/12 01:57:55;;;;;;;10.65;7.22;;;7.00;99.90;;;;;;5012982;28;20442;-75
2020/12/12 02:00:24;;;;;;;12.85;8.07;;;7.00;99.90;;;;;;5016714;28;20040;-75
2020/12/12 02:02:56;;;;;;;11.88;8.20;;;7.00;99.90;;;;;;5016107;28;20046;-75
2020/12/12 02:05:39;;;;;;;14.85;8.18;;;7.00;99.90;;;;;;5012712;28;20037;-76
2020/12/12 02:08:18;;;;;;;15.43;9.07;;;7.00;99.90;;;;;;5014573;28;20103;-76
2020/12/12 02:10:45;;;;;;;11.85;8.02;;;6.90;99.90;;;;;;5014201;28;20049;-76
2020/12/12 02:13:13;;;;;;;13.63;8.75;;;6.90;99.90;;;;;;5017455;28;20071;-75
2020/12/12 02:15:40;;;;;;;13.63;8.73;;;6.90;99.90;;;;;;5011405;28;20045;-76
2020/12/12 02:18:06;;;;;;;12.52;8.57;;;6.90;99.90;;;;;;5013877;28;20104;-75
2020/12/12 02:20:33;;;;;;;11.77;8.70;;;6.90;99.90;;;;;;5014830;28;20037;-75
2020/12/12 02:22:59;;;;;;;13.90;8.93;;;6.90;99.90;;;;;;5014867;28;20053;-76
2020/12/12 02:25:25;;;;;;;12.93;8.02;;;6.90;99.90;;;;;;5015152;28;20053;-74
2020/12/12 02:27:54;;;;;;;14.75;8.88;;;7.00;99.90;;;;;;5015372;28;20038;-75
2020/12/12 02:30:19;;;;;;;15.20;8.43;;;6.90;99.90;;;;;;5007645;28;20312;-76
2020/12/12 02:32:46;;;;;;;12.82;7.97;;;6.90;99.90;;;;;;5010322;28;20045;-75
2020/12/12 02:35:11;;;;;;;14.10;9.20;;;6.90;99.90;;;;;;5014320;28;20049;-75
2020/12/12 02:37:37;;;;;;;12.45;8.63;;;6.90;99.90;;;;;;5018025;28;20070;-76
2020/12/12 02:40:06;;;;;;;13.93;8.80;;;6.90;99.90;;;;;;5018814;28;20180;-75
2020/12/12 02:42:32;;;;;;;13.23;8.40;;;6.90;99.90;;;;;;5015117;28;20060;-75
2020/12/12 02:44:58;;;;;;;11.85;8.32;;;6.90;99.90;;;;;;5017175;28;20506;-74
2020/12/12 02:47:23;;;;;;;13.35;8.68;;;6.90;99.90;;;;;;5000660;28;20132;-75
2020/12/12 02:50:11;;;;;;;13.73;9.43;;;6.90;99.90;;;;;;5014034;28;20057;-75
2020/12/12 02:52:38;;;;;;;16.33;9.68;;;6.90;99.90;;;;;;5016894;28;20033;-75
2020/12/12 02:55:10;;;;;;;12.70;8.50;;;6.90;99.90;;;;;;5010090;28;20403;-75
2020/12/12 02:57:36;;;;;;;14.32;8.48;;;6.90;99.90;;;;;;5011086;28;20144;-76
2020/12/12 03:00:15;;;;;;;13.27;8.63;;;7.00;99.90;;;;;;5016384;28;20471;-74
2020/12/12 03:02:41;;;;;;;14.38;8.48;;;7.00;99.90;;;;;;5012378;28;20518;-75
2020/12/12 03:05:07;;;;;;;14.70;8.95;;;6.90;99.90;;;;;;5011369;28;20030;-75
2020/12/12 03:07:34;;;;;;;12.57;8.57;;;6.90;99.90;;;;;;5013228;28;20064;-74
2020/12/12 03:10:00;;;;;;;13.98;8.38;;;6.90;99.90;;;;;;5006812;28;20034;-74
2020/12/12 03:12:26;;;;;;;12.55;8.70;;;7.00;99.90;;;;;;5010006;28;20041;-75
2020/12/12 03:14:52;;;;;;;12.05;8.35;;;6.90;99.90;;;;;;5005020;28;20037;-75
2020/12/12 03:17:17;;;;;;;12.93;8.07;;;6.90;99.90;;;;;;5020089;28;20037;-76
2020/12/12 03:19:43;;;;;;;11.15;7.72;;;7.00;99.90;;;;;;5009738;28;20034;-75
2020/12/12 03:22:09;;;;;;;11.52;8.15;;;7.00;99.90;;;;;;5010749;28;20042;-74
2020/12/12 03:24:35;;;;;;;10.60;7.80;;;7.10;99.90;;;;;;5017336;28;20073;-75
2020/12/12 03:27:01;;;;;;;12.48;7.95;;;7.00;99.90;;;;;;5012712;28;20034;-75
2020/12/12 03:29:26;;;;;;;13.02;8.35;;;6.90;99.90;;;;;;4995931;28;20042;-75
2020/12/12 03:31:52;;;;;;;13.05;8.45;;;6.90;99.90;;;;;;5014767;28;20037;-75
2020/12/12 03:34:18;;;;;;;12.18;8.65;;;6.90;99.90;;;;;;5018235;28;20022;-75
2020/12/12 03:36:44;;;;;;;12.50;8.27;;;6.90;99.90;;;;;;5011894;28;20034;-75
2020/12/12 03:39:10;;;;;;;12.20;8.15;;;6.90;99.90;;;;;;5023556;28;20442;-75
2020/12/12 03:41:36;;;;;;;11.68;7.57;;;6.90;99.90;;;;;;5009886;28;20045;-74
2020/12/12 03:44:02;;;;;;;10.57;7.53;;;6.90;99.90;;;;;;5009119;28;20061;-75
2020/12/12 03:46:28;;;;;;;12.23;7.70;;;6.90;99.90;;;;;;5018100;28;20499;-73
2020/12/12 03:48:54;;;;;;;11.48;7.40;;;6.90;99.90;;;;;;5018983;28;20171;-75
2020/12/12 03:51:19;;;;;;;10.10;7.22;;;6.90;99.90;;;;;;5020887;28;20395;-75
2020/12/12 03:53:45;;;;;;;10.27;6.93;;;6.90;99.90;;;;;;5012938;28;20047;-75
2020/12/12 03:56:10;;;;;;;10.93;6.95;;;6.90;99.90;;;;;;5013953;28;20550;-75
2020/12/12 03:58:36;;;;;;;10.88;7.63;;;6.90;99.90;;;;;;5013490;28;20034;-74
2020/12/12 04:01:02;;;;;;;10.77;7.32;;;6.90;99.90;;;;;;5013993;28;20038;-74
2020/12/12 04:03:28;;;;;;;11.68;7.10;;;6.90;99.90;;;;;;5012633;28;20045;-75
2020/12/12 04:05:53;;;;;;;11.43;7.43;;;6.90;99.90;;;;;;5019688;28;20187;-76
2020/12/12 04:08:19;;;;;;;9.52;5.95;;;6.90;99.90;;;;;;5013747;28;20065;-75
2020/12/12 04:10:45;;;;;;;11.20;6.93;;;6.90;99.90;;;;;;5025751;28;20041;-75
2020/12/12 04:13:11;;;;;;;10.48;7.35;;;6.90;99.90;;;;;;5014401;28;20358;-74
2020/12/12 04:15:37;;;;;;;10.27;6.72;;;6.90;99.90;;;;;;5016815;28;20042;-73
2020/12/12 04:18:03;;;;;;;9.52;6.65;;;6.90;99.90;;;;;;5013446;28;20038;-74
2020/12/12 04:20:29;;;;;;;11.38;7.50;;;6.90;99.90;;;;;;5011931;28;20045;-74
2020/12/12 04:22:55;;;;;;;9.40;6.63;;;6.90;99.90;;;;;;5018177;28;20037;-74
2020/12/12 04:25:21;;;;;;;10.52;7.35;;;6.90;99.90;;;;;;5016257;28;20046;-75
2020/12/12 04:27:47;;;;;;;10.57;7.30;;;6.90;99.90;;;;;;5014987;28;20045;-74
2020/12/12 04:30:13;;;;;;;8.45;6.30;;;6.90;99.90;;;;;;5018441;28;20570;-74
2020/12/12 04:32:39;;;;;;;10.35;6.60;;;6.90;99.90;;;;;;5014538;28;20034;-74
2020/12/12 04:35:05;;;;;;;8.65;6.43;;;6.90;99.90;;;;;;5012955;28;20048;-75
2020/12/12 04:37:31;;;;;;;9.90;6.53;;;6.90;99.90;;;;;;5012266;28;20117;-75
2020/12/12 04:39:56;;;;;;;9.20;6.57;;;6.90;99.90;;;;;;5022157;28;20106;-75
2020/12/12 04:42:25;;;;;;;10.77;6.88;;;6.90;99.90;;;;;;5013805;28;20459;-74
2020/12/12 04:44:52;;;;;;;9.98;6.75;;;6.90;99.90;;;;;;5018221;28;20077;-74
2020/12/12 04:47:18;;;;;;;10.15;6.93;;;6.90;99.90;;;;;;5011258;28;20042;-74
2020/12/12 04:49:45;;;;;;;11.18;7.20;;;6.90;99.90;;;;;;5015672;28;20037;-74
2020/12/12 04:52:14;;;;;;;11.43;6.70;;;6.90;99.90;;;;;;5025402;28;20045;-75
2020/12/12 04:54:42;;;;;;;9.25;6.28;;;6.90;99.90;;;;;;5012890;28;20061;-74
2020/12/12 04:57:08;;;;;;;8.30;5.47;;;6.90;99.90;;;;;;5016313;28;20164;-74
2020/12/12 04:59:34;;;;;;;10.10;6.57;;;6.90;99.90;;;;;;5011890;28;20133;-74
2020/12/12 05:02:02;;;;;;;11.30;6.22;;;6.90;99.90;;;;;;5015126;28;20502;-73
2020/12/12 05:04:28;;;;;;;9.75;6.57;;;6.90;99.90;;;;;;5015357;28;20103;-74
2020/12/12 05:06:54;;;;;;;9.77;6.03;;;7.00;99.90;;;;;;5013536;28;20495;-74
2020/12/12 05:09:20;;;;;;;8.43;5.53;;;6.90;99.90;;;;;;5021912;28;20034;-74
2020/12/12 05:11:47;;;;;;;8.65;6.00;;;7.00;99.90;;;;;;5011762;28;20083;-74
2020/12/12 05:14:16;;;;;;;7.40;5.13;;;7.00;99.90;;;;;;5013664;28;20108;-76
2020/12/12 05:16:46;;;;;;;9.07;5.45;;;7.00;99.90;;;;;;5011373;28;20403;-73
2020/12/12 05:19:15;;;;;;;6.53;4.80;;;7.00;99.90;;;;;;5014132;28;20396;-74
2020/12/12 05:21:52;;;;;;;8.68;5.43;;;7.00;99.90;;;;;;5015756;28;20128;-75
2020/12/12 05:24:18;;;;;;;8.00;4.90;;;7.10;99.90;;;;;;5021125;28;20042;-76
2020/12/12 05:26:44;;;;;;;8.20;5.15;;;7.00;99.90;;;;;;5017589;28;20530;-75
2020/12/12 05:29:13;;;;;;;6.82;4.93;;;7.00;99.90;;;;;;5011935;28;20407;-75
2020/12/12 05:31:40;;;;;;;8.30;5.13;;;7.00;99.90;;;;;;5016351;28;20042;-75
2020/12/12 05:34:14;;;;;;;8.13;5.25;;;7.00;99.90;;;;;;5009291;28;20487;-76
2020/12/12 05:36:41;;;;;;;7.78;5.00;;;7.00;99.90;;;;;;5014427;28;20037;-73
2020/12/12 05:39:13;;;;;;;7.72;5.05;;;7.00;99.90;;;;;;5012612;28;20124;-74
2020/12/12 05:41:40;;;;;;;9.85;6.20;;;7.00;99.90;;;;;;5020953;28;20447;-74
2020/12/12 05:44:06;;;;;;;10.00;5.72;;;7.00;99.90;;;;;;5010411;28;20450;-74
2020/12/12 05:46:33;;;;;;;10.57;5.72;;;7.00;99.90;;;;;;5012169;28;20606;-74
2020/12/12 05:49:00;;;;;;;8.77;6.03;;;7.10;99.90;;;;;;5009083;28;20040;-75
2020/12/12 05:51:30;;;;;;;10.68;6.13;;;7.10;99.90;;;;;;5018106;28;20030;-75
2020/12/12 05:53:56;;;;;;;9.43;6.15;;;7.00;99.90;;;;;;5015353;28;20120;-74
2020/12/12 05:56:24;;;;;;;10.45;6.78;;;7.00;99.90;;;;;;5010056;28;20060;-74
2020/12/12 05:58:51;;;;;;;10.50;6.80;;;7.00;99.90;;;;;;5018592;28;20100;-75
2020/12/12 06:01:22;;;;;;;11.25;6.55;;;7.00;99.90;;;;;;5020856;28;20042;-74
2020/12/12 06:04:09;;;;;;;10.65;6.65;;;7.00;99.90;;;;;;5018079;28;20152;-74
2020/12/12 06:06:43;;;;;;;12.45;7.03;;;7.10;99.90;;;;;;5018312;28;20116;-75
2020/12/12 06:09:13;;;;;;;13.65;7.38;;;7.10;99.90;;;;;;5011019;28;20062;-74
2020/12/12 06:11:46;;;;;;;13.40;7.15;;;7.10;99.90;;;;;;5009917;28;20116;-74
2020/12/12 06:14:13;;;;;;;11.35;7.22;;;7.10;99.90;;;;;;5024206;28;20426;-74
2020/12/12 06:16:41;;;;;;;13.30;7.75;;;7.10;99.90;;;;;;5017064;28;20128;-73
2020/12/12 06:19:14;;;;;;;14.18;7.78;;;7.10;99.90;;;;;;5017908;28;20037;-74
2020/12/12 06:21:45;;;;;;;13.55;7.55;;;7.20;99.90;;;;;;5012474;28;20529;-74
2020/12/12 06:24:14;;;;;;;9.57;6.75;;;7.20;99.90;;;;;;5012547;28;20411;-75
2020/12/12 06:26:59;;;;;;;12.85;8.10;;;7.20;99.90;;;;;;5008755;28;20518;-75
2020/12/12 06:29:32;;;;;;;13.75;8.38;;;7.20;99.90;;;;;;5009834;28;20065;-74
2020/12/12 06:31:58;;;;;;;10.05;7.03;;;7.30;99.90;;;;;;5014068;28;20092;-73
2020/12/12 06:34:48;;;;;;;11.27;8.00;;;7.30;99.90;;;;;;5012228;28;20116;-75
2020/12/12 06:37:33;;;;;;;11.43;7.18;;;7.30;99.90;;;;;;5011171;28;20092;-73
2020/12/12 06:40:00;;;;;;;10.55;7.40;;;7.30;99.90;;;;;;5018657;28;20041;-74
2020/12/12 06:42:29;;;;;;;12.10;6.75;;;7.30;99.90;;;;;;5009887;28;20080;-76
2020/12/12 06:44:55;;;;;;;11.55;6.95;;;7.30;99.90;;;;;;5011458;28;20088;-74
2020/12/12 06:47:41;;;;;;;8.82;6.55;;;7.30;99.90;;;;;;5011106;28;20507;-75
2020/12/12 06:50:25;;;;;;;9.68;6.75;;;7.40;99.90;;;;;;5016701;28;20548;-74
2020/12/12 06:52:52;;;;;;;10.30;7.75;;;7.40;99.90;;;;;;5018533;28;20478;-75
2020/12/12 06:55:21;;;;;;;11.15;7.40;;;7.40;99.90;;;;;;5011928;28;20037;-74
2020/12/12 06:57:49;;;;;;;13.23;8.65;;;7.40;99.90;;;;;;5009522;28;20045;-75
2020/12/12 07:00:19;;;;;;;9.70;6.57;;;7.40;99.90;;;;;;5009608;28;20034;-76
2020/12/12 07:03:00;;;;;;;9.43;6.63;;;7.40;99.90;;;;;;5010186;28;20426;-74
2020/12/12 07:05:29;;;;;;;8.95;6.57;;;7.50;99.90;;;;;;5012007;28;20491;-75
2020/12/12 07:08:03;;;;;;;8.70;6.47;;;7.50;99.90;;;;;;5020777;28;20419;-75
2020/12/12 07:10:33;;;;;;;9.23;5.93;;;7.50;99.90;;;;;;5011329;28;20176;-74
2020/12/12 07:13:00;;;;;;;10.68;6.10;;;7.50;99.90;;;;;;5013097;28;20042;-74
2020/12/12 07:15:30;;;;;;;7.88;5.20;;;7.60;99.90;;;;;;5011597;28;20049;-73
2020/12/12 07:18:07;;;;;;;;;;;7.50;99.90;;;;;;5011827;28;20405;-74
2020/12/12 07:20:37;;;;;;;10.57;7.22;;;7.60;99.90;;;;;;5026832;28;19948;-74
2020/12/12 07:23:04;;;;;;;9.15;6.75;;;7.60;99.90;;;;;;5018358;28;20060;-74
2020/12/12 07:25:32;;;;;;;11.30;7.22;;;7.60;99.90;;;;;;5013844;28;20030;-74
2020/12/12 07:27:58;;;;;;;10.48;7.18;;;7.60;99.90;;;;;;5008975;28;20045;-74
2020/12/12 07:30:24;;;;;;;10.80;7.15;;;7.60;99.90;;;;;;5022481;28;20037;-75
2020/12/12 07:32:50;;;;;;;10.07;7.07;;;7.60;99.90;;;;;;5009610;28;20115;-74
2020/12/12 07:35:16;;;;;;;10.52;7.30;;;7.60;99.90;;;;;;5016719;28;20736;-75
2020/12/12 07:37:42;;;;;;;10.65;7.20;;;7.70;99.90;;;;;;5010476;28;20234;-73
2020/12/12 07:40:07;;;;;;;10.13;7.28;;;7.70;99.90;;;;;;5018578;28;20072;-77
2020/12/12 07:42:35;;;;;;;13.52;8.13;;;7.70;99.90;;;;;;5022518;28;20042;-76
2020/12/12 07:47:48;;;;;;;12.93;7.95;;;7.60;99.90;;;;;;5016681;28;20092;-74
2020/12/12 07:50:13;;;;;;;13.93;8.43;;;7.60;99.90;;;;;;5013662;28;20029;-75
2020/12/12 07:52:41;;;;;;;14.02;8.50;;;7.60;99.90;;;;;;5015983;28;20028;-75
2020/12/12 07:55:11;;;;;;;11.25;7.05;;;7.60;99.90;;;;;;5004705;28;20478;-74
2020/12/12 07:57:42;;;;;;;15.23;10.35;;;7.60;99.90;;;;;;5018422;28;20133;-74
2020/12/12 08:00:12;;;;;;;13.32;8.20;;;7.70;99.90;;;;;;5016378;28;20933;-74
2020/12/12 08:02:38;;;;;;;12.43;7.85;;;7.70;99.90;;;;;;5015241;28;20068;-74
2020/12/12 08:05:05;;;;;;;12.77;8.48;;;7.70;99.90;;;;;;5023160;28;20030;-75
2020/12/12 08:07:33;;;;;;;12.85;8.05;;;7.70;99.90;;;;;;5014119;28;20840;-74
2020/12/12 08:09:59;;;;;;;15.23;8.60;;;7.70;99.90;;;;;;5018878;28;20033;-74
2020/12/12 08:12:32;;;;;;;13.45;7.93;;;7.80;99.90;;;;;;5017723;28;20057;-74
2020/12/12 08:15:35;;;;;;;12.18;8.45;;;7.80;99.90;;;;;;5017106;28;20503;-75
2020/12/12 08:18:11;;;;;;;12.50;8.10;;;7.80;99.90;;;;;;5017267;28;20039;-75
2020/12/12 08:20:44;;;;;;;13.23;8.35;;;7.90;99.90;;;;;;5013314;28;20041;-75
2020/12/12 08:23:16;;;;;;;14.50;8.70;;;7.90;99.90;;;;;;5025539;28;20049;-75
2020/12/12 08:25:44;;;;;;;15.23;9.10;;;7.90;99.90;;;;;;5013590;28;20164;-74
2020/12/12 08:28:10;;;;;;;12.15;8.05;;;8.00;99.90;;;;;;5011551;28;20037;-74
2020/12/12 08:30:36;;;;;;;14.38;9.18;;;8.00;99.90;;;;;;5020135;28;20503;-74
2020/12/12 08:33:10;;;;;;;14.77;8.65;;;8.00;99.90;;;;;;5017664;28;20041;-74
2020/12/12 08:35:36;;;;;;;14.32;8.55;;;8.00;99.90;;;;;;5022106;28;20038;-75
2020/12/12 08:38:06;;;;;;;13.55;8.50;;;8.00;99.90;;;;;;5023213;28;20101;-74
2020/12/12 08:40:48;;;;;;;12.63;7.65;;;8.00;99.90;;;;;;5021337;28;20033;-74
2020/12/12 08:43:14;;;;;;;14.45;9.40;;;8.10;99.90;;;;;;5019965;28;20139;-76
2020/12/12 08:45:43;;;;;;;12.05;8.20;;;8.10;99.90;;;;;;5018829;28;20037;-73
2020/12/12 08:48:11;;;;;;;15.77;8.18;;;8.10;99.90;;;;;;5019392;28;20049;-74
2020/12/12 08:50:55;;;;;;;11.82;8.18;;;8.10;99.90;;;;;;5015395;28;20044;-74
2020/12/12 08:53:22;;;;;;;14.32;9.40;;;8.10;99.90;;;;;;5015261;28;20034;-73
2020/12/12 08:56:14;;;;;;;12.32;7.90;;;8.10;99.90;;;;;;5012898;28;20038;-73
2020/12/12 08:58:50;;;;;;;9.85;6.22;;;8.10;99.90;;;;;;5019230;28;20103;-74
2020/12/12 09:01:17;;;;;;;11.23;6.50;;;8.20;99.90;;;;;;5018426;28;20072;-75
2020/12/12 09:03:51;;;;;;;9.45;6.32;;;8.10;99.90;;;;;;5019340;28;20046;-75
2020/12/12 09:06:18;;;;;;;9.80;5.35;;;8.10;99.90;;;;;;5015752;28;20380;-74
2020/12/12 09:08:43;;;;;;;8.93;4.70;;;8.20;99.90;;;;;;5020436;28;20048;-76
2020/12/12 09:11:17;;;;;;;7.95;4.93;;;8.20;99.90;;;;;;5019769;28;20037;-74
2020/12/12 09:13:43;;;;;;;7.43;4.95;;;8.30;99.90;;;;;;5012256;28;20479;-74
2020/12/12 09:16:10;;;;;;;6.68;4.47;;;8.30;99.90;;;;;;5028880;28;21417;-74
2020/12/12 09:18:43;;;;;;;6.53;4.28;;;8.30;99.90;;;;;;5009094;28;20045;-74
2020/12/12 09:21:09;;;;;;;7.15;4.40;;;8.30;99.90;;;;;;5009987;28;20045;-75
2020/12/12 09:23:35;;;;;;;6.60;4.75;;;8.30;99.90;;;;;;5010745;28;20735;-74
2020/12/12 09:26:00;;;;;;;7.25;4.40;;;8.30;99.90;;;;;;5007923;28;20061;-74
2020/12/12 09:28:26;;;;;;;7.28;4.78;;;8.40;99.90;;;;;;5025926;28;20064;-74
2020/12/12 09:30:52;;;;;;;9.90;4.93;;;8.40;99.90;;;;;;5012899;28;20395;-75
2020/12/12 09:33:17;;;;;;;7.65;4.70;;;8.40;99.90;;;;;;5010603;28;20033;-74
2020/12/12 09:35:43;;;;;;;8.05;5.03;;;8.40;99.90;;;;;;5010850;28;20708;-75
2020/12/12 09:38:09;;;;;;;9.88;5.30;;;8.40;99.90;;;;;;5009576;28;20558;-74
2020/12/12 09:40:35;;;;;;;7.85;4.50;;;8.40;99.90;;;;;;5015506;28;20065;-74
2020/12/12 09:43:00;;;;;;;10.13;5.88;;;8.40;99.90;;;;;;5019185;28;20116;-74
2020/12/12 09:45:26;;;;;;;7.43;4.45;;;8.50;99.90;;;;;;5017543;28;20026;-75
2020/12/12 09:47:54;;;;;;;8.77;4.47;;;8.50;99.90;;;;;;5014992;28;20512;-74
2020/12/12 09:50:20;;;;;;;7.75;4.95;;;8.50;99.90;;;;;;5007856;28;20498;-74
2020/12/12 09:52:46;;;;;;;6.13;4.20;;;8.40;99.90;;;;;;5013474;28;20025;-75
2020/12/12 09:55:11;;;;;;;7.47;4.43;;;8.40;99.90;;;;;;5019105;28;20514;-74
2020/12/12 09:57:37;;;;;;;8.95;5.60;;;8.40;99.90;;;;;;5017126;28;20507;-75
2020/12/12 10:00:04;;;;;;;13.00;6.50;;;8.40;99.90;;;;;;5017683;28;20065;-74
2020/12/12 10:02:30;;;;;;;9.48;5.55;;;8.30;99.90;;;;;;5024230;28;20042;-74
2020/12/12 10:04:56;;;;;;;8.68;5.20;;;8.40;99.90;;;;;;5012753;28;20040;-74
2020/12/12 10:07:22;;;;;;;9.02;5.20;;;8.40;99.90;;;;;;5009629;28;20046;-77
2020/12/12 10:09:48;;;;;;;6.82;4.72;;;8.40;99.90;;;;;;5014093;28;20029;-75
2020/12/12 10:12:13;;;;;;;10.00;6.35;;;8.40;99.90;;;;;;5013428;28;20423;-74
2020/12/12 10:14:39;;;;;;;6.75;4.40;;;8.50;99.90;;;;;;5000376;28;20038;-75
2020/12/12 10:17:05;;;;;;;8.38;5.53;;;8.50;99.90;;;;;;5013335;28;21393;-75
2020/12/12 10:19:30;;;;;;;11.18;7.65;;;8.50;99.90;;;;;;5019635;28;20126;-75
2020/12/12 10:21:56;;;;;;;7.15;5.15;;;8.60;99.90;;;;;;5014803;28;20053;-75
2020/12/12 10:24:22;;;;;;;6.88;4.63;;;8.50;99.90;;;;;;5018150;28;20053;-75
2020/12/12 10:26:48;;;;;;;7.82;5.50;;;8.60;99.90;;;;;;5026138;28;20053;-75
2020/12/12 10:29:13;;;;;;;7.13;5.22;;;8.60;99.90;;;;;;5017986;28;20057;-74
2020/12/12 10:31:39;;;;;;;8.60;5.95;;;8.60;99.90;;;;;;5014126;28;20133;-74
2020/12/12 10:34:05;;;;;;;8.65;5.50;;;8.70;99.90;;;;;;5015052;28;20117;-74
2020/12/12 10:36:31;;;;;;;7.38;4.88;;;8.70;99.90;;;;;;5010246;28;20045;-74
2020/12/12 10:38:57;;;;;;;8.45;4.88;;;8.70;99.90;;;;;;5018837;28;20456;-75
2020/12/12 10:41:28;;;;;;;8.40;4.57;;;8.80;99.90;;;;;;5016193;28;20052;-75
2020/12/12 10:43:53;;;;;;;4.88;3.50;;;8.80;99.90;;;;;;5016734;28;20052;-75
2020/12/12 10:46:19;;;;;;;4.32;2.65;;;8.90;99.90;;;;;;5015830;28;20026;-74
2020/12/12 10:48:44;;;;;;;4.78;2.30;;;9.00;99.90;;;;;;5013185;28;20051;-75
2020/12/12 10:51:11;;;;;;;4.47;2.30;;;9.00;99.90;;;;;;5011357;28;20033;-75
2020/12/12 10:53:37;;;;;;;2.88;2.00;;;9.00;99.90;;;;;;5011259;28;20104;-75
2020/12/12 10:56:02;;;;;;;5.78;2.42;;;9.00;99.90;;;;;;5011293;28;20460;-74
2020/12/12 10:58:28;;;;;;;4.13;2.53;;;9.10;99.90;;;;;;5007666;28;20054;-75
2020/12/12 11:00:54;;;;;;;4.00;2.80;;;9.10;99.90;;;;;;5013015;28;20038;-74
2020/12/12 11:03:20;;;;;;;4.88;3.28;;;9.00;99.90;;;;;;5001166;28;20037;-75
2020/12/12 11:05:46;;;;;;;5.32;3.10;;;8.90;99.90;;;;;;5012873;28;20111;-74
2020/12/12 11:08:11;;;;;;;5.85;3.30;;;9.00;99.90;;;;;;5011939;28;20124;-75
2020/12/12 11:10:37;;;;;;;4.20;2.80;;;9.00;99.90;;;;;;5009087;28;20038;-74
2020/12/12 11:13:02;;;;;;;9.50;5.65;;;8.90;99.90;;;;;;5013887;28;20076;-74
2020/12/12 11:15:28;;;;;;;6.55;3.80;;;8.90;99.90;;;;;;5006506;28;20046;-73
2020/12/12 11:17:54;;;;;;;8.13;3.47;;;8.90;99.90;;;;;;5010232;28;20507;-74
2020/12/12 11:20:21;;;;;;;5.45;3.55;;;8.80;99.90;;;;;;5014361;28;20057;-75
2020/12/12 11:22:46;;;;;;;7.55;4.05;;;8.90;99.90;;;;;;5013654;28;20072;-74
2020/12/12 11:25:12;;;;;;;7.43;3.70;;;8.90;99.90;;;;;;5016041;28;20033;-75
2020/12/12 11:27:39;;;;;;;5.63;3.55;;;8.90;99.90;;;;;;5015687;28;20045;-74
2020/12/12 11:30:10;;;;;;;4.53;2.80;;;9.00;99.90;;;;;;5020900;28;20037;-75
2020/12/12 11:32:36;;;;;;;5.85;4.03;;;8.90;99.90;;;;;;5022375;28;20514;-74
2020/12/12 11:35:09;;;;;;;4.88;3.33;;;8.80;99.90;;;;;;5012919;28;20038;-75
2020/12/12 11:40:19;;;;;;;6.15;3.63;;;8.90;99.90;;;;;;5017018;28;20022;-75
2020/12/12 11:47:42;;;;;;;5.57;3.75;;;8.90;99.90;;;;;;5010886;28;20026;-76
2020/12/12 11:50:08;;;;;;;5.13;3.90;;;8.90;99.90;;;;;;5003944;28;20053;-75
2020/12/12 11:52:38;;;;;;;4.30;3.10;;;8.90;99.90;;;;;;5014033;28;20307;-75
2020/12/12 11:55:04;;;;;;;4.33;3.07;;;8.90;99.90;;;;;;5018155;28;20033;-75
2020/12/12 11:57:31;;;;;;;6.53;3.40;;;8.80;99.90;;;;;;5017214;28;20038;-76
2020/12/12 12:00:00;;;;;;;4.45;3.30;;;8.80;99.90;;;;;;5009831;28;20025;-76
2020/12/12 12:02:25;;;;;;;4.18;3.17;;;8.80;99.90;;;;;;5012796;28;20026;-73
2020/12/12 12:04:52;;;;;;;4.97;3.58;;;8.80;99.90;;;;;;4999794;28;20038;-74
2020/12/12 12:07:17;;;;;;;5.18;3.55;;;8.80;99.90;;;;;;5007475;28;20048;-74
2020/12/12 12:09:46;;;;;;;4.35;3.20;;;8.80;99.90;;;;;;5006049;28;20422;-74
2020/12/12 12:12:11;;;;;;;13.52;8.10;;;8.80;99.90;;;;;;5011833;28;20050;-74
2020/12/12 12:14:37;;;;;;;20.40;14.07;;;8.80;99.90;;;;;;5014677;28;20109;-74
2020/12/12 12:17:03;;;;;;;7.18;4.40;;;8.80;99.90;;;;;;5009314;28;20396;-76
2020/12/12 12:19:29;;;;;;;5.82;4.05;;;8.80;99.90;;;;;;5008507;28;20546;-74
2020/12/12 12:21:55;;;;;;;5.72;4.10;;;8.80;99.90;;;;;;5019703;28;20042;-74
2020/12/12 12:24:21;;;;;;;6.28;4.32;;;8.70;99.90;;;;;;5011059;28;20123;-75
2020/12/12 12:26:48;;;;;;;7.55;4.30;;;8.70;99.90;;;;;;5013035;28;20492;-76
2020/12/12 12:29:15;;;;;;;6.40;4.50;;;8.70;99.90;;;;;;5015289;28;20506;-75
2020/12/12 12:31:42;;;;;;;7.80;4.72;;;8.70;99.90;;;;;;5016522;28;20030;-74
2020/12/12 12:34:08;;;;;;;6.85;4.15;;;8.70;99.90;;;;;;5012222;28;20025;-75
2020/12/12 12:36:34;;;;;;;7.90;5.05;;;8.70;99.90;;;;;;5019228;28;20034;-76
2020/12/12 12:39:01;;;;;;;6.78;4.95;;;8.70;99.90;;;;;;5016413;28;20037;-74
2020/12/12 12:41:28;;;;;;;7.28;4.72;;;8.70;99.90;;;;;;5009671;28;20060;-74
2020/12/12 12:44:00;;;;;;;6.90;5.03;;;8.60;99.90;;;;;;5013768;28;20123;-75
2020/12/12 12:46:29;;;;;;;8.60;5.35;;;8.60;99.90;;;;;;5014456;28;20025;-75
2020/12/12 12:48:56;;;;;;;13.63;10.20;;;8.60;99.90;;;;;;5011587;28;20947;-76
2020/12/12 12:51:22;;;;;;;8.15;5.90;;;8.70;99.90;;;;;;5012313;28;20073;-76
2020/12/12 12:53:48;;;;;;;8.77;5.97;;;8.70;99.90;;;;;;5021605;28;20060;-76
2020/12/12 12:56:13;;;;;;;8.40;6.43;;;8.60;99.90;;;;;;4998216;28;20034;-74
2020/12/12 12:58:39;;;;;;;8.13;5.85;;;8.60;99.90;;;;;;5004302;28;20034;-74
2020/12/12 13:01:04;;;;;;;10.18;6.50;;;8.70;99.90;;;;;;5014827;28;20029;-74
2020/12/12 13:03:30;;;;;;;9.90;6.45;;;8.80;99.90;;;;;;5016499;28;20033;-75